Time;durP1;ratioP1;P1;durP2;ratioP2;P2;SDS_P1;SDS_P2;PMS_P1;PMS_P2;Temp;Humidity;BMP_temperature;BMP_pressure;BME280_temperature;BME280_humidity;BME280_pressure;Samples;Min_cycle;Max_cycle;Signal;HPM_P1;HPM_P2
2023/07/05 00:00:38;;;;;;;2.42;1.17;;;27.10;85.30;;;;;;4997444;28;20099;-85
2023/07/05 00:03:04;;;;;;;2.55;1.13;;;27.10;85.20;;;;;;4996650;28;20049;-85
2023/07/05 00:05:30;;;;;;;1.20;0.90;;;27.10;85.20;;;;;;4996701;28;20035;-85
2023/07/05 00:07:56;;;;;;;2.67;1.30;;;27.10;85.20;;;;;;4996894;28;20026;-85
2023/07/05 00:10:22;;;;;;;2.53;1.80;;;27.10;85.30;;;;;;4997034;28;20088;-85
2023/07/05 00:12:47;;;;;;;2.80;1.52;;;27.00;85.40;;;;;;4997180;28;20050;-85
2023/07/05 00:15:13;;;;;;;2.10;1.63;;;27.00;85.50;;;;;;4979463;28;20185;-85
2023/07/05 00:17:39;;;;;;;2.65;1.42;;;27.00;85.60;;;;;;4976619;28;20504;-85
2023/07/05 00:20:07;;;;;;;1.52;1.30;;;26.90;85.60;;;;;;4979531;28;20125;-85
2023/07/05 00:22:33;;;;;;;2.25;1.65;;;26.90;85.80;;;;;;4997072;28;20034;-85
2023/07/05 00:25:01;;;;;;;2.45;2.03;;;26.80;86.20;;;;;;4979351;28;20031;-85
2023/07/05 00:27:27;;;;;;;2.80;2.10;;;26.80;86.20;;;;;;4991153;28;20355;-84
2023/07/05 00:29:53;;;;;;;2.38;1.80;;;26.70;86.30;;;;;;4996840;28;20029;-85
2023/07/05 00:32:19;;;;;;;3.85;2.20;;;26.70;86.70;;;;;;4996687;28;20034;-85
2023/07/05 00:34:45;;;;;;;3.40;2.70;;;26.60;86.80;;;;;;4996350;28;20026;-85
2023/07/05 00:37:11;;;;;;;3.78;2.65;;;26.60;86.70;;;;;;4996421;28;20046;-85
2023/07/05 00:39:36;;;;;;;3.90;3.05;;;26.60;86.80;;;;;;4996729;28;20470;-85
2023/07/05 00:42:03;;;;;;;3.53;3.00;;;26.50;86.90;;;;;;4996612;28;20034;-85
2023/07/05 00:44:29;;;;;;;5.35;3.42;;;26.50;86.90;;;;;;4996255;28;20081;-85
2023/07/05 00:47:21;;;;;;;2.90;2.13;;;26.50;86.90;;;;;;4995942;28;20018;-85
2023/07/05 00:49:47;;;;;;;5.30;2.40;;;26.50;86.90;;;;;;4978771;28;20030;-85
2023/07/05 00:52:16;;;;;;;2.72;2.33;;;26.50;87.00;;;;;;4996511;28;20025;-85
2023/07/05 00:54:46;;;;;;;3.03;2.60;;;26.50;86.90;;;;;;4979012;28;20064;-85
2023/07/05 00:57:18;;;;;;;3.40;2.03;;;26.50;86.90;;;;;;4995916;28;20023;-85
2023/07/05 01:00:07;;;;;;;4.68;2.75;;;26.50;86.90;;;;;;4996380;28;20106;-85
2023/07/05 01:02:38;;;;;;;3.28;2.45;;;26.50;86.90;;;;;;4996050;28;20097;-85
2023/07/05 01:05:05;;;;;;;3.70;2.40;;;26.40;86.80;;;;;;4996228;28;20037;-85
2023/07/05 01:07:31;;;;;;;4.03;3.13;;;26.40;86.70;;;;;;4995053;28;20058;-85
2023/07/05 01:09:57;;;;;;;4.82;3.10;;;26.30;86.60;;;;;;4978299;28;20033;-85
2023/07/05 01:12:23;;;;;;;3.08;2.10;;;26.30;86.60;;;;;;4995607;28;20374;-85
2023/07/05 01:15:06;;;;;;;3.10;2.60;;;26.30;86.80;;;;;;4996272;28;20429;-85
2023/07/05 01:17:51;;;;;;;5.65;2.95;;;26.30;86.80;;;;;;4995847;28;20045;-85
2023/07/05 01:20:16;;;;;;;4.75;2.97;;;26.30;86.50;;;;;;4995877;28;20034;-85
2023/07/05 01:23:06;;;;;;;4.20;3.00;;;26.30;86.40;;;;;;4995717;28;20529;-85
2023/07/05 01:26:11;;;;;;;5.10;2.78;;;26.30;86.30;;;;;;4995722;28;20367;-85
2023/07/05 01:28:40;;;;;;;4.00;3.10;;;26.30;86.30;;;;;;4991096;28;20042;-85
2023/07/05 01:31:41;;;;;;;3.75;2.58;;;26.20;86.40;;;;;;4978108;28;20045;-85
2023/07/05 01:34:27;;;;;;;3.80;3.00;;;26.20;86.40;;;;;;4994849;28;20490;-84
2023/07/05 01:36:53;;;;;;;4.20;2.90;;;26.20;86.30;;;;;;4995366;28;20478;-84
2023/07/05 01:39:19;;;;;;;3.58;2.70;;;26.20;86.30;;;;;;4995443;28;20049;-84
2023/07/05 01:41:44;;;;;;;3.63;3.05;;;26.20;86.30;;;;;;4995422;28;20582;-84
2023/07/05 01:44:13;;;;;;;3.85;2.65;;;26.20;86.10;;;;;;4995381;28;20406;-84
2023/07/05 01:46:56;;;;;;;3.53;2.80;;;26.20;85.70;;;;;;4994868;28;20078;-84
2023/07/05 01:49:40;;;;;;;3.72;2.25;;;26.20;85.10;;;;;;4958350;28;20457;-84
2023/07/05 01:52:12;;;;;;;5.43;2.03;;;26.20;84.50;;;;;;4976130;28;20035;-84
2023/07/05 01:55:01;;;;;;;2.28;1.73;;;26.20;83.50;;;;;;4975819;28;20022;-84
2023/07/05 01:57:51;;;;;;;2.63;1.80;;;26.20;82.10;;;;;;4983394;28;20479;-85
2023/07/05 02:00:20;;;;;;;1.60;1.30;;;26.20;81.40;;;;;;4994971;28;20490;-84
2023/07/05 02:02:51;;;;;;;1.17;1.05;;;26.10;79.70;;;;;;4994906;28;20030;-85
2023/07/05 02:05:18;;;;;;;2.58;1.38;;;26.00;79.20;;;;;;4990743;28;20482;-85
2023/07/05 02:07:44;;;;;;;1.67;0.95;;;26.00;77.70;;;;;;4992412;28;20030;-85
2023/07/05 02:10:11;;;;;;;1.63;1.23;;;25.90;77.70;;;;;;4977670;28;20358;-85
2023/07/05 02:12:37;;;;;;;1.58;0.98;;;25.90;76.70;;;;;;4994745;28;20053;-86
2023/07/05 02:15:02;;;;;;;1.92;1.05;;;25.90;76.50;;;;;;4977055;28;20042;-84
2023/07/05 02:17:29;;;;;;;1.42;1.10;;;25.90;75.70;;;;;;4993742;28;20109;-85
2023/07/05 02:19:55;;;;;;;2.28;1.05;;;25.90;75.40;;;;;;4994916;28;20030;-85
2023/07/05 02:22:20;;;;;;;3.08;1.00;;;25.90;74.80;;;;;;4994910;28;20101;-85
2023/07/05 02:24:51;;;;;;;0.98;0.82;;;25.80;74.40;;;;;;4991781;28;20071;-85
2023/07/05 02:27:17;;;;;;;1.13;0.73;;;25.80;74.10;;;;;;4994659;28;20025;-85
2023/07/05 02:29:43;;;;;;;2.58;0.80;;;25.70;73.70;;;;;;4994391;28;20503;-85
2023/07/05 02:32:09;;;;;;;3.90;0.75;;;25.80;73.70;;;;;;4994662;28;20026;-85
2023/07/05 02:34:42;;;;;;;1.25;0.80;;;25.70;73.30;;;;;;4977133;28;20035;-85
2023/07/05 02:37:09;;;;;;;2.53;0.95;;;25.70;72.80;;;;;;4994235;28;20080;-85
2023/07/05 02:39:35;;;;;;;1.08;0.73;;;25.70;72.60;;;;;;4976316;28;20058;-85
2023/07/05 02:42:01;;;;;;;1.27;0.77;;;25.70;72.70;;;;;;4994388;28;20026;-85
2023/07/05 02:44:27;;;;;;;1.58;0.80;;;25.70;72.60;;;;;;5013842;28;20022;-86
2023/07/05 02:46:53;;;;;;;3.55;0.88;;;25.60;72.30;;;;;;4999045;28;20034;-86
2023/07/05 02:49:18;;;;;;;1.42;0.88;;;25.60;72.20;;;;;;4994071;28;20356;-85
2023/07/05 02:51:44;;;;;;;1.67;0.80;;;25.60;72.20;;;;;;4994050;28;20029;-86
2023/07/05 02:54:10;;;;;;;3.05;0.63;;;25.60;72.20;;;;;;4992986;28;20133;-85
2023/07/05 02:56:36;;;;;;;0.90;0.70;;;25.60;72.00;;;;;;4994134;28;20057;-85
2023/07/05 02:59:01;;;;;;;1.55;0.82;;;25.50;71.80;;;;;;5000653;28;20022;-85
2023/07/05 03:01:27;;;;;;;0.98;0.70;;;25.50;71.50;;;;;;5013955;28;20091;-85
2023/07/05 03:03:53;;;;;;;1.95;0.80;;;25.40;71.30;;;;;;4996047;28;20124;-84
2023/07/05 03:06:18;;;;;;;1.13;0.80;;;25.40;71.20;;;;;;5004620;28;20034;-85
2023/07/05 03:08:44;;;;;;;2.70;1.13;;;25.40;71.20;;;;;;4994340;28;20034;-84
2023/07/05 03:11:10;;;;;;;2.58;0.82;;;25.40;71.00;;;;;;4993797;28;20030;-84
2023/07/05 03:13:36;;;;;;;1.42;0.70;;;25.40;71.00;;;;;;4993749;28;20030;-84
2023/07/05 03:16:02;;;;;;;1.13;0.80;;;25.40;71.20;;;;;;4993700;28;20042;-84
2023/07/05 03:18:29;;;;;;;2.38;0.73;;;25.40;71.00;;;;;;4993218;28;20117;-84
2023/07/05 03:20:55;;;;;;;1.45;0.70;;;25.30;71.10;;;;;;4993799;28;20030;-84
2023/07/05 03:23:21;;;;;;;1.23;0.57;;;25.30;70.90;;;;;;4993757;28;20471;-84
2023/07/05 03:25:54;;;;;;;1.20;0.65;;;25.30;70.90;;;;;;4993425;28;20104;-84
2023/07/05 03:28:20;;;;;;;0.68;0.60;;;25.20;70.30;;;;;;4993188;28;20030;-84
2023/07/05 03:31:05;;;;;;;1.20;0.57;;;25.10;70.80;;;;;;4999846;28;20097;-84
2023/07/05 03:33:32;;;;;;;1.13;0.80;;;25.10;70.80;;;;;;5000301;28;20026;-84
2023/07/05 03:36:03;;;;;;;1.50;0.68;;;25.00;70.80;;;;;;4999695;28;20089;-84
2023/07/05 03:38:30;;;;;;;1.02;0.80;;;24.90;71.00;;;;;;4980560;28;20031;-84
2023/07/05 03:41:07;;;;;;;1.65;0.70;;;24.90;71.10;;;;;;4980365;28;20037;-84
2023/07/05 03:43:38;;;;;;;0.82;0.57;;;24.90;71.00;;;;;;4980471;28;20484;-84
2023/07/05 03:46:05;;;;;;;2.95;0.90;;;24.80;71.10;;;;;;4987699;28;20041;-84
2023/07/05 03:48:35;;;;;;;0.80;0.60;;;24.80;71.50;;;;;;4999963;28;20057;-84
2023/07/05 03:51:01;;;;;;;4.10;0.75;;;24.80;71.60;;;;;;5000062;28;20058;-84
2023/07/05 03:53:28;;;;;;;0.70;0.45;;;24.70;71.70;;;;;;5000205;28;20023;-83
2023/07/05 03:55:54;;;;;;;1.92;0.70;;;24.70;71.80;;;;;;4981781;28;20518;-84
2023/07/05 03:58:20;;;;;;;1.20;0.70;;;24.70;72.00;;;;;;4999635;28;20057;-83
2023/07/05 04:00:46;;;;;;;1.52;0.60;;;24.60;72.00;;;;;;4995204;28;20033;-83
2023/07/05 04:03:13;;;;;;;1.58;0.60;;;24.50;72.20;;;;;;4999523;28;20089;-84
2023/07/05 04:05:39;;;;;;;1.02;0.60;;;24.50;72.50;;;;;;4981863;28;20950;-85
2023/07/05 04:08:05;;;;;;;1.48;0.60;;;24.50;72.50;;;;;;4999629;28;20026;-85
2023/07/05 04:10:30;;;;;;;0.75;0.60;;;24.50;72.60;;;;;;4999717;28;20023;-84
2023/07/05 04:12:59;;;;;;;0.73;0.40;;;24.50;72.80;;;;;;4999774;28;20376;-84
2023/07/05 04:15:25;;;;;;;0.65;0.55;;;24.50;72.80;;;;;;4975519;28;20043;-83
2023/07/05 04:17:50;;;;;;;1.30;0.65;;;24.50;72.70;;;;;;4997907;28;20030;-84
2023/07/05 04:20:16;;;;;;;1.05;0.65;;;24.50;72.90;;;;;;4999960;28;20031;-84
2023/07/05 04:22:43;;;;;;;1.48;0.77;;;24.50;73.10;;;;;;4999985;28;20520;-84
2023/07/05 04:25:10;;;;;;;0.82;0.40;;;24.50;73.10;;;;;;4999759;28;20053;-83
2023/07/05 04:27:36;;;;;;;1.60;0.85;;;24.50;73.10;;;;;;4999496;28;20031;-84
2023/07/05 04:30:03;;;;;;;2.88;0.90;;;24.50;73.00;;;;;;4999585;28;20026;-84
2023/07/05 04:32:29;;;;;;;3.30;0.80;;;24.40;73.20;;;;;;4999961;28;20030;-84
2023/07/05 04:34:55;;;;;;;4.72;0.95;;;24.30;73.40;;;;;;4999402;28;20097;-83
2023/07/05 04:37:21;;;;;;;4.05;1.30;;;24.30;74.30;;;;;;4999964;28;20474;-84
2023/07/05 04:40:01;;;;;;;1.98;0.98;;;24.30;77.50;;;;;;4999905;28;20414;-84
2023/07/05 04:42:27;;;;;;;;;;;24.20;79.30;;;;;;4995748;28;20040;-83
2023/07/05 04:44:53;;;;;;;1.48;1.00;;;24.10;81.00;;;;;;4996075;28;19910;-83
2023/07/05 04:47:19;;;;;;;3.20;1.52;;;24.00;81.80;;;;;;4996560;28;20041;-83
2023/07/05 04:49:46;;;;;;;6.20;1.92;;;23.90;83.20;;;;;;4996416;28;20415;-83
2023/07/05 04:52:12;;;;;;;3.15;1.17;;;23.70;84.60;;;;;;4996524;28;20439;-84
2023/07/05 04:54:38;;;;;;;2.67;1.48;;;23.50;85.40;;;;;;4995971;28;20033;-84
2023/07/05 04:57:04;;;;;;;1.35;0.90;;;23.40;88.10;;;;;;4995770;28;20030;-84
2023/07/05 04:59:30;;;;;;;5.25;1.08;;;23.20;87.70;;;;;;4977913;28;20140;-84
2023/07/05 05:01:58;;;;;;;1.52;1.00;;;23.20;88.00;;;;;;4996508;28;20030;-83
2023/07/05 05:04:24;;;;;;;3.95;1.33;;;23.20;88.40;;;;;;4995769;28;20165;-83
2023/07/05 05:06:50;;;;;;;1.58;1.23;;;23.10;88.50;;;;;;4995874;28;20141;-83
2023/07/05 05:09:16;;;;;;;3.80;1.10;;;23.00;89.00;;;;;;4996247;28;20030;-83
2023/07/05 05:11:41;;;;;;;4.18;1.05;;;22.90;89.30;;;;;;4995928;28;20043;-83
2023/07/05 05:14:07;;;;;;;2.08;0.88;;;22.90;89.60;;;;;;4978334;28;20466;-82
2023/07/05 05:16:32;;;;;;;2.28;1.20;;;22.80;89.80;;;;;;5010815;28;20410;-83
2023/07/05 05:18:58;;;;;;;2.83;0.80;;;22.80;90.00;;;;;;5015622;28;20119;-83
2023/07/05 05:21:24;;;;;;;5.10;1.00;;;22.70;90.10;;;;;;4997509;28;20363;-83
2023/07/05 05:23:49;;;;;;;2.00;0.77;;;22.70;90.20;;;;;;5015162;28;20026;-83
2023/07/05 05:26:15;;;;;;;2.00;1.17;;;22.60;90.30;;;;;;4995427;28;20497;-83
2023/07/05 05:28:41;;;;;;;2.03;1.00;;;22.60;90.40;;;;;;4977940;28;20542;-84
2023/07/05 05:31:09;;;;;;;2.22;0.98;;;22.70;90.40;;;;;;4995161;28;20062;-84
2023/07/05 05:33:36;;;;;;;1.00;0.65;;;22.70;90.70;;;;;;4996029;28;20030;-84
2023/07/05 05:36:02;;;;;;;3.67;0.98;;;22.70;90.40;;;;;;4995658;28;20038;-84
2023/07/05 05:38:29;;;;;;;0.88;0.75;;;22.70;90.20;;;;;;4995133;28;20030;-84
2023/07/05 05:41:04;;;;;;;1.85;0.75;;;22.70;90.10;;;;;;4995040;28;20367;-83
2023/07/05 05:43:30;;;;;;;2.45;0.95;;;22.70;90.30;;;;;;4995564;28;20041;-83
2023/07/05 05:45:56;;;;;;;1.63;0.90;;;22.70;90.60;;;;;;4978087;28;20514;-84
2023/07/05 05:48:22;;;;;;;2.75;1.05;;;22.70;90.90;;;;;;4977299;28;20026;-84
2023/07/05 05:50:48;;;;;;;3.83;1.20;;;22.70;90.90;;;;;;4988151;28;20521;-84
2023/07/05 05:53:14;;;;;;;4.30;0.93;;;22.70;90.80;;;;;;4994967;28;20018;-84
2023/07/05 05:55:40;;;;;;;2.58;1.15;;;22.70;90.90;;;;;;4995021;28;20041;-84
2023/07/05 05:58:06;;;;;;;3.03;1.05;;;22.70;91.10;;;;;;4995066;28;20042;-83
2023/07/05 06:00:33;;;;;;;1.45;0.70;;;22.80;91.00;;;;;;4995033;28;20030;-84
2023/07/05 06:02:58;;;;;;;1.63;1.05;;;22.80;91.00;;;;;;4977455;28;20431;-83
2023/07/05 06:05:25;;;;;;;2.13;1.08;;;22.80;91.10;;;;;;4975553;28;20117;-83
2023/07/05 06:07:51;;;;;;;1.30;0.70;;;22.80;91.10;;;;;;4994496;28;20466;-83
2023/07/05 06:10:17;;;;;;;4.05;1.35;;;22.90;91.10;;;;;;4994715;28;20022;-92
2023/07/05 06:12:42;;;;;;;1.83;0.90;;;22.90;91.10;;;;;;4976866;28;20042;-92
2023/07/05 06:15:10;;;;;;;1.48;1.00;;;23.00;91.20;;;;;;4969725;28;20038;-92
2023/07/05 06:17:36;;;;;;;2.97;1.73;;;23.00;91.00;;;;;;5006168;28;20080;-92
2023/07/05 06:20:01;;;;;;;2.50;1.30;;;23.00;91.00;;;;;;5014323;28;20030;-91
2023/07/05 06:22:27;;;;;;;3.83;1.23;;;23.10;91.00;;;;;;5014275;28;20101;-92
2023/07/05 06:24:53;;;;;;;2.20;0.93;;;23.10;91.50;;;;;;5001614;28;20507;-92
2023/07/05 06:27:18;;;;;;;3.40;1.15;;;23.20;91.40;;;;;;4994437;28;20034;-92
2023/07/05 06:29:44;;;;;;;3.67;1.13;;;23.20;91.40;;;;;;4993702;28;20479;-92
2023/07/05 06:32:10;;;;;;;1.63;1.15;;;23.30;91.40;;;;;;4994381;28;20034;-92
2023/07/05 06:34:35;;;;;;;4.72;1.67;;;23.30;91.30;;;;;;4994367;28;20033;-91
2023/07/05 06:37:01;;;;;;;1.40;0.80;;;23.40;91.50;;;;;;5021655;23;20467;-91
2023/07/05 06:39:27;;;;;;;1.92;1.00;;;23.40;91.30;;;;;;5013561;28;20021;-83
2023/07/05 06:41:52;;;;;;;2.28;1.05;;;23.40;91.40;;;;;;5032787;28;20028;-83
2023/07/05 06:44:18;;;;;;;2.45;1.00;;;23.40;91.10;;;;;;5029052;28;20022;-83
2023/07/05 06:46:44;;;;;;;5.65;1.27;;;23.40;90.70;;;;;;5033284;28;20469;-83
2023/07/05 06:49:09;;;;;;;1.73;1.00;;;23.40;90.70;;;;;;5032575;28;20473;-83
2023/07/05 06:51:35;;;;;;;3.60;1.35;;;23.40;90.60;;;;;;5033061;28;20025;-83
2023/07/05 06:54:01;;;;;;;4.30;1.80;;;23.30;90.80;;;;;;5033144;28;20097;-83
2023/07/05 06:56:26;;;;;;;4.65;1.23;;;23.30;90.90;;;;;;5033230;28;20470;-90
2023/07/05 06:58:52;;;;;;;4.32;1.42;;;23.30;91.00;;;;;;5032900;28;20488;-89
2023/07/05 07:01:17;;;;;;;2.22;1.38;;;23.30;91.20;;;;;;5033288;28;20492;-90
2023/07/05 07:03:43;;;;;;;1.10;0.90;;;23.30;91.20;;;;;;5032307;28;20695;-89
2023/07/05 07:06:10;;;;;;;2.15;1.20;;;23.30;91.30;;;;;;5031081;28;20463;-89
2023/07/05 07:08:38;;;;;;;2.95;1.58;;;23.30;91.20;;;;;;5032509;28;20025;-83
2023/07/05 07:11:05;;;;;;;4.78;1.25;;;23.30;91.10;;;;;;5032334;28;20025;-83
2023/07/05 07:13:32;;;;;;;3.20;1.10;;;23.30;91.10;;;;;;5032978;28;20029;-83
2023/07/05 07:16:18;;;;;;;3.65;1.10;;;23.30;91.10;;;;;;5030084;28;20048;-83
2023/07/05 07:18:47;;;;;;;1.73;1.00;;;23.30;91.10;;;;;;5052355;28;20044;-83
2023/07/05 07:21:13;;;;;;;1.70;1.20;;;23.30;91.10;;;;;;5053444;28;20041;-83
2023/07/05 07:23:39;;;;;;;2.53;1.02;;;23.40;91.00;;;;;;5053287;28;20024;-83
2023/07/05 07:26:12;;;;;;;2.03;1.10;;;23.40;90.90;;;;;;5053199;28;20086;-83
2023/07/05 07:28:38;;;;;;;2.60;1.30;;;23.50;90.70;;;;;;5052858;28;20021;-83
2023/07/05 07:31:23;;;;;;;3.65;1.20;;;23.60;90.80;;;;;;5036921;28;20026;-83
2023/07/05 07:33:50;;;;;;;2.70;1.23;;;23.60;90.50;;;;;;5033091;28;20386;-83
2023/07/05 07:36:19;;;;;;;3.20;1.30;;;23.60;90.20;;;;;;5033173;28;20539;-83
2023/07/05 07:38:45;;;;;;;3.78;1.20;;;23.70;90.20;;;;;;5032836;28;20029;-83
2023/07/05 07:41:16;;;;;;;1.98;1.13;;;23.70;90.30;;;;;;5033147;28;20036;-83
2023/07/05 07:43:42;;;;;;;4.22;1.05;;;23.80;90.40;;;;;;5033133;28;20026;-83
2023/07/05 07:46:10;;;;;;;2.47;1.42;;;23.80;90.30;;;;;;5015437;28;20037;-82
2023/07/05 07:48:36;;;;;;;1.50;1.00;;;23.80;90.30;;;;;;5032626;28;20454;-83
2023/07/05 07:51:01;;;;;;;2.58;1.10;;;23.80;90.10;;;;;;5048651;28;20036;-83
2023/07/05 07:53:27;;;;;;;2.35;1.00;;;23.80;90.00;;;;;;5035505;28;20026;-84
2023/07/05 07:55:53;;;;;;;2.30;1.05;;;23.80;89.80;;;;;;5032482;28;20033;-84
2023/07/05 07:58:18;;;;;;;1.45;1.00;;;23.80;89.90;;;;;;5032973;28;20017;-84
2023/07/05 08:00:44;;;;;;;1.75;1.00;;;23.80;90.00;;;;;;5032879;28;20116;-84
2023/07/05 08:03:09;;;;;;;2.35;1.20;;;23.80;90.30;;;;;;5032918;28;20056;-84
2023/07/05 08:05:35;;;;;;;3.38;1.17;;;23.90;90.00;;;;;;5032670;28;20026;-84
2023/07/05 08:08:01;;;;;;;1.60;1.17;;;23.90;89.90;;;;;;5032647;28;20144;-84
2023/07/05 08:10:29;;;;;;;4.13;1.40;;;23.90;89.40;;;;;;5032313;28;20109;-85
2023/07/05 08:12:56;;;;;;;2.03;1.20;;;24.00;89.80;;;;;;5032451;28;20485;-84
2023/07/05 08:15:23;;;;;;;1.92;1.02;;;23.90;89.10;;;;;;5032474;28;20029;-84
2023/07/05 08:17:49;;;;;;;1.70;1.00;;;23.90;89.00;;;;;;5036431;28;20049;-85
2023/07/05 08:20:15;;;;;;;1.30;1.10;;;24.00;88.90;;;;;;5018521;28;20087;-85
2023/07/05 08:22:41;;;;;;;3.22;0.98;;;24.00;88.50;;;;;;5036288;28;20026;-86
2023/07/05 08:25:39;;;;;;;2.25;1.20;;;24.10;88.10;;;;;;5035950;28;20033;-86
2023/07/05 08:28:05;;;;;;;1.60;0.80;;;24.10;87.70;;;;;;5018434;28;20034;-86
2023/07/05 08:30:33;;;;;;;1.83;0.95;;;24.20;87.60;;;;;;5018198;28;20488;-86
2023/07/05 08:32:59;;;;;;;1.92;0.90;;;24.30;87.20;;;;;;5035928;28;20017;-86
2023/07/05 08:35:25;;;;;;;1.10;0.70;;;24.30;86.90;;;;;;5035330;28;20121;-87
2023/07/05 08:37:50;;;;;;;1.27;0.88;;;24.40;86.30;;;;;;5035432;28;20055;-87
2023/07/05 08:40:17;;;;;;;1.20;0.80;;;24.50;86.00;;;;;;5035952;28;20029;-86
2023/07/05 08:42:59;;;;;;;1.80;0.90;;;24.50;85.60;;;;;;5035788;28;20481;-86
2023/07/05 08:45:41;;;;;;;1.58;1.02;;;24.60;84.50;;;;;;5035837;28;20079;-87
2023/07/05 08:48:10;;;;;;;1.45;0.80;;;24.70;84.70;;;;;;5035686;28;20535;-87
2023/07/05 08:50:41;;;;;;;1.23;0.90;;;24.80;84.80;;;;;;5035569;28;20096;-87
2023/07/05 08:53:14;;;;;;;1.90;0.73;;;24.90;84.60;;;;;;5035763;28;20106;-87
2023/07/05 08:56:06;;;;;;;1.05;0.80;;;25.10;84.00;;;;;;5035898;28;20782;-87
2023/07/05 08:58:44;;;;;;;1.42;0.80;;;25.20;84.50;;;;;;5035764;28;20041;-86
2023/07/05 09:01:18;;;;;;;0.65;0.52;;;25.40;84.80;;;;;;5049586;28;20382;-87
2023/07/05 09:03:44;;;;;;;3.03;0.88;;;25.50;84.20;;;;;;5035414;28;20504;-87
2023/07/05 09:06:13;;;;;;;1.95;0.80;;;25.60;82.40;;;;;;5035493;28;20025;-85
2023/07/05 09:08:52;;;;;;;1.92;0.90;;;25.80;81.90;;;;;;5035483;28;20105;-85
2023/07/05 09:11:30;;;;;;;4.30;1.20;;;25.80;81.10;;;;;;5034888;28;20029;-87
2023/07/05 09:14:15;;;;;;;1.55;0.65;;;26.00;81.50;;;;;;5016136;28;20030;-87
2023/07/05 09:17:04;;;;;;;2.78;1.05;;;26.10;80.90;;;;;;5015501;28;20029;-89
2023/07/05 09:19:59;;;;;;;1.60;0.77;;;26.20;80.20;;;;;;4998476;28;20450;-88
2023/07/05 09:22:30;;;;;;;0.98;0.70;;;26.30;78.10;;;;;;5015644;28;20026;-89
2023/07/05 09:24:56;;;;;;;1.77;0.82;;;26.40;78.20;;;;;;5015477;28;20113;-89
2023/07/05 09:27:25;;;;;;;1.52;0.95;;;26.50;77.80;;;;;;5013731;28;20025;-89
2023/07/05 09:30:14;;;;;;;1.05;0.73;;;26.50;78.10;;;;;;5026631;28;20036;-89
2023/07/05 09:32:49;;;;;;;1.23;1.00;;;26.60;76.90;;;;;;5035664;28;20021;-89
2023/07/05 09:35:21;;;;;;;1.33;0.80;;;26.70;76.30;;;;;;5033589;28;20033;-89
2023/07/05 09:38:15;;;;;;;1.27;0.63;;;26.80;76.10;;;;;;5035672;28;20049;-88
2023/07/05 09:41:10;;;;;;;0.80;0.60;;;26.90;73.50;;;;;;5035461;28;20470;-89
2023/07/05 09:43:36;;;;;;;0.40;0.40;;;27.00;74.10;;;;;;5017402;28;20026;-88
2023/07/05 09:46:13;;;;;;;1.75;0.55;;;27.00;73.40;;;;;;5034790;28;20057;-88
2023/07/05 09:48:46;;;;;;;0.93;0.52;;;27.10;72.40;;;;;;5035352;28;20029;-89
2023/07/05 09:51:12;;;;;;;1.90;1.08;;;27.20;73.30;;;;;;5035055;28;20026;-89
2023/07/05 09:53:54;;;;;;;1.45;1.00;;;27.30;73.90;;;;;;5035116;28;20072;-89
2023/07/05 09:56:29;;;;;;;3.22;0.90;;;27.40;74.30;;;;;;5035026;28;20029;-90
2023/07/05 09:59:19;;;;;;;0.80;0.80;;;27.50;74.30;;;;;;5034631;28;20040;-90
2023/07/05 10:01:50;;;;;;;0.85;0.73;;;27.60;73.50;;;;;;5035068;28;20038;-90
2023/07/05 10:04:17;;;;;;;0.40;0.40;;;27.80;74.00;;;;;;5015144;28;20040;-89
2023/07/05 10:06:46;;;;;;;1.05;0.73;;;27.90;74.20;;;;;;5014986;28;20033;-89
2023/07/05 10:09:15;;;;;;;0.80;0.50;;;28.10;74.20;;;;;;5014772;28;20363;-89
2023/07/05 10:11:50;;;;;;;2.33;0.88;;;28.20;73.00;;;;;;5014625;28;20026;-89
2023/07/05 10:14:20;;;;;;;1.98;0.50;;;28.30;73.00;;;;;;5014799;28;20018;-89
2023/07/05 10:17:09;;;;;;;0.70;0.47;;;28.40;72.80;;;;;;5014704;28;20022;-89
2023/07/05 10:19:40;;;;;;;1.10;0.55;;;28.60;73.20;;;;;;5002643;28;20036;-88
2023/07/05 10:22:07;;;;;;;0.82;0.60;;;28.80;71.80;;;;;;5014429;28;20041;-89
2023/07/05 10:24:51;;;;;;;4.68;0.80;;;28.90;70.80;;;;;;5014762;28;20470;-89
2023/07/05 10:27:28;;;;;;;1.08;0.60;;;29.00;68.80;;;;;;5014080;28;20033;-89
2023/07/05 10:30:03;;;;;;;0.90;0.47;;;29.00;68.90;;;;;;5008058;28;20052;-89
2023/07/05 10:32:30;;;;;;;1.75;0.80;;;29.10;68.50;;;;;;5013892;28;20509;-89
2023/07/05 10:34:57;;;;;;;0.80;0.65;;;29.10;67.20;;;;;;5013437;28;20037;-89
2023/07/05 10:37:34;;;;;;;1.08;0.68;;;29.20;68.20;;;;;;5012202;28;20520;-89
2023/07/05 10:40:09;;;;;;;1.73;0.65;;;29.30;66.40;;;;;;4995606;28;20026;-90
2023/07/05 10:42:49;;;;;;;0.77;0.50;;;29.30;66.80;;;;;;5013839;28;20033;-89
2023/07/05 10:45:20;;;;;;;0.57;0.43;;;29.40;66.70;;;;;;5014036;28;20034;-89
2023/07/05 10:47:53;;;;;;;0.70;0.60;;;29.40;67.20;;;;;;5013893;28;20081;-90
2023/07/05 10:50:34;;;;;;;1.00;0.50;;;29.50;66.50;;;;;;5013890;28;20030;-86
2023/07/05 10:53:27;;;;;;;0.63;0.50;;;29.70;66.60;;;;;;5013874;28;20022;-86
2023/07/05 10:56:09;;;;;;;1.80;0.95;;;29.80;65.90;;;;;;5010153;28;20544;-85
2023/07/05 10:58:46;;;;;;;0.77;0.65;;;29.90;65.30;;;;;;5013255;28;20030;-86
2023/07/05 11:01:18;;;;;;;0.75;0.60;;;30.00;65.70;;;;;;4993862;28;20037;-90
2023/07/05 11:04:08;;;;;;;1.00;0.52;;;30.10;65.80;;;;;;4993604;28;20033;-89
2023/07/05 11:06:35;;;;;;;;;;;30.30;65.50;;;;;;4994346;28;20034;-89
2023/07/05 11:09:03;;;;;;;0.82;0.52;;;30.50;63.70;;;;;;4994098;28;19997;-89
2023/07/05 11:11:35;;;;;;;2.53;1.00;;;30.60;64.50;;;;;;4993841;28;20019;-89
2023/07/05 11:14:03;;;;;;;2.83;1.17;;;30.80;63.60;;;;;;4976384;28;20090;-88
2023/07/05 11:16:31;;;;;;;2.22;1.05;;;30.90;62.80;;;;;;4993992;28;20019;-90
2023/07/05 11:19:03;;;;;;;1.08;0.75;;;31.10;62.50;;;;;;4977146;28;20117;-90
2023/07/05 11:21:34;;;;;;;1.52;0.90;;;31.30;61.50;;;;;;4993867;28;20146;-90
2023/07/05 11:24:00;;;;;;;1.30;0.70;;;31.50;61.60;;;;;;4994390;28;20073;-90
2023/07/05 11:26:38;;;;;;;1.50;0.82;;;31.70;61.40;;;;;;5001603;28;20026;-89
2023/07/05 11:29:25;;;;;;;2.40;0.70;;;32.00;60.20;;;;;;5013705;28;20022;-90
2023/07/05 11:31:54;;;;;;;1.08;0.68;;;32.20;59.70;;;;;;5026603;28;20500;-89
2023/07/05 11:34:23;;;;;;;1.27;0.90;;;32.50;60.30;;;;;;5033355;28;20029;-90
2023/07/05 11:37:00;;;;;;;1.33;0.60;;;32.90;60.40;;;;;;5008945;28;20526;-90
2023/07/05 11:39:36;;;;;;;1.02;0.60;;;33.40;59.30;;;;;;5013310;28;20517;-90
2023/07/05 11:42:17;;;;;;;1.08;0.63;;;33.80;56.30;;;;;;5013186;28;20037;-86
2023/07/05 11:44:50;;;;;;;1.23;0.80;;;34.10;54.90;;;;;;5006434;28;20076;-86
2023/07/05 11:47:22;;;;;;;1.83;1.27;;;34.40;54.70;;;;;;5012384;28;20386;-86
2023/07/05 11:49:57;;;;;;;1.20;0.70;;;34.60;55.50;;;;;;4995611;28;20390;-86
2023/07/05 11:52:24;;;;;;;3.28;1.02;;;34.90;54.30;;;;;;5016999;28;20036;-86
2023/07/05 11:54:54;;;;;;;1.08;0.80;;;35.20;54.50;;;;;;5016923;28;20112;-86
2023/07/05 11:57:21;;;;;;;0.88;0.60;;;35.50;53.60;;;;;;5016427;28;20022;-86
2023/07/05 11:59:49;;;;;;;0.90;0.70;;;35.70;52.20;;;;;;5016049;28;20030;-86
2023/07/05 12:02:42;;;;;;;1.05;0.75;;;35.80;52.60;;;;;;5016601;28;20033;-85
2023/07/05 12:05:12;;;;;;;2.00;1.05;;;35.90;51.50;;;;;;4997023;28;20034;-85
2023/07/05 12:07:39;;;;;;;0.90;0.45;;;36.00;51.00;;;;;;5008234;28;20025;-85
2023/07/05 12:10:07;;;;;;;1.45;1.05;;;36.00;51.40;;;;;;5016399;28;20030;-85
2023/07/05 12:12:39;;;;;;;2.15;0.80;;;36.10;51.70;;;;;;4998878;28;20069;-85
2023/07/05 12:15:09;;;;;;;1.23;0.82;;;36.30;51.80;;;;;;4998939;28;20050;-85
2023/07/05 12:17:35;;;;;;;2.50;1.05;;;36.40;51.10;;;;;;5016243;28;20026;-85
2023/07/05 12:20:04;;;;;;;1.90;0.98;;;36.40;50.50;;;;;;5016217;28;20033;-86
2023/07/05 12:22:38;;;;;;;1.77;0.90;;;36.50;51.00;;;;;;5016123;28;20080;-85
2023/07/05 12:25:04;;;;;;;0.98;0.80;;;36.50;50.70;;;;;;5014705;28;20033;-87
2023/07/05 12:27:32;;;;;;;2.10;1.10;;;36.60;51.10;;;;;;5015571;28;20026;-85
2023/07/05 12:30:00;;;;;;;1.15;0.80;;;36.70;50.90;;;;;;5013604;28;20026;-85
2023/07/05 12:32:28;;;;;;;1.27;0.70;;;36.70;51.00;;;;;;5015603;28;20026;-85
2023/07/05 12:35:25;;;;;;;1.60;0.90;;;36.80;50.80;;;;;;5016190;28;20105;-84
2023/07/05 12:37:53;;;;;;;2.80;0.70;;;37.10;50.40;;;;;;5015959;28;20393;-84
2023/07/05 12:40:32;;;;;;;1.13;0.90;;;37.30;49.20;;;;;;5017468;28;20056;-84
2023/07/05 12:43:04;;;;;;;1.85;1.10;;;37.40;49.60;;;;;;5034168;28;20025;-85
2023/07/05 12:45:35;;;;;;;1.80;1.15;;;37.50;49.90;;;;;;5032136;28;20026;-85
2023/07/05 12:48:25;;;;;;;1.67;0.90;;;37.50;50.10;;;;;;5034982;28;20025;-85
2023/07/05 12:51:28;;;;;;;1.58;0.93;;;37.70;50.00;;;;;;5036313;28;20025;-86
2023/07/05 12:54:00;;;;;;;1.77;1.00;;;37.70;48.70;;;;;;5031615;28;20132;-90
2023/07/05 12:56:59;;;;;;;1.13;0.93;;;37.80;49.20;;;;;;5012270;28;20100;-90
2023/07/05 12:59:32;;;;;;;0.95;0.82;;;37.90;48.90;;;;;;5000573;28;20037;-91
2023/07/05 13:02:05;;;;;;;1.20;0.90;;;38.00;50.20;;;;;;5034920;28;20111;-90
2023/07/05 13:04:37;;;;;;;1.25;0.98;;;38.10;50.00;;;;;;5018011;28;20033;-90